createdAt,value
2022-12-06T00:00:36.475Z,99882.31
2022-12-06T00:05:41.865Z,99881.16
2022-12-06T00:10:47.695Z,99882.31
2022-12-06T00:15:49.401Z,99873.03
2022-12-06T00:20:51.112Z,99874.72
2022-12-06T00:25:52.862Z,99885.63
2022-12-06T00:31:01.752Z,99888.94
2022-12-06T00:36:07.295Z,99882.53
2022-12-06T00:41:12.539Z,99875.94
2022-12-06T00:46:17.503Z,99884.22
2022-12-06T00:51:20.888Z,99884.66
2022-12-06T00:56:22.756Z,99888.34
2022-12-06T01:01:27.456Z,99886.47
2022-12-06T01:06:31.750Z,99885.09
2022-12-06T01:11:33.644Z,99888.28
2022-12-06T01:16:35.633Z,99888.59
2022-12-06T01:21:37.490Z,99878.66
2022-12-06T01:26:39.179Z,99867.28
2022-12-06T01:31:40.888Z,99852.78
2022-12-06T01:36:43.443Z,99845.00
2022-12-06T01:41:45.092Z,99836.72
2022-12-06T01:46:46.804Z,99833.72
2022-12-06T01:51:54.657Z,99829.31
2022-12-06T01:56:57.778Z,99825.50
2022-12-06T02:01:59.643Z,99820.66
2022-12-06T02:07:01.910Z,99811.88
2022-12-06T02:12:06.537Z,99802.59
2022-12-06T02:17:38.866Z,99797.41
2022-12-06T02:22:58.906Z,99786.59
2022-12-06T02:28:26.517Z,99782.84
2022-12-06T02:33:44.207Z,99775.81
2022-12-06T02:38:57.012Z,99778.06
2022-12-06T02:44:04.569Z,99776.97
2022-12-06T02:49:08.449Z,99777.25
2022-12-06T02:54:11.788Z,99768.13
2022-12-06T02:59:13.645Z,99761.25
2022-12-06T03:04:33.788Z,99760.09
2022-12-06T03:09:51.400Z,99753.97
2022-12-06T03:15:34.195Z,99764.50
2022-12-06T03:20:47.506Z,99753.00
2022-12-06T03:25:51.448Z,99754.38
2022-12-06T03:30:57.629Z,99759.28
2022-12-06T03:36:00.121Z,99754.06
2022-12-06T03:41:06.098Z,99752.66
2022-12-06T03:46:19.181Z,99749.75
2022-12-06T03:51:26.486Z,99739.94
2022-12-06T03:56:28.916Z,99741.72
2022-12-06T04:01:30.651Z,99741.50
2022-12-06T04:06:32.888Z,99745.09
2022-12-06T04:11:34.545Z,99737.22
2022-12-06T04:16:54.862Z,99732.50
2022-12-06T04:22:15.195Z,99741.78
2022-12-06T04:27:35.612Z,99741.50
2022-12-06T04:32:55.867Z,99731.22
2022-12-06T04:38:17.032Z,99729.94
2022-12-06T04:43:37.187Z,99721.50
2022-12-06T04:48:39.187Z,99719.56
2022-12-06T04:53:40.870Z,99728.25
2022-12-06T04:58:43.202Z,99720.66
2022-12-06T05:03:44.904Z,99723.59
2022-12-06T05:08:46.670Z,99718.78
2022-12-06T05:13:48.341Z,99712.38
2022-12-06T05:18:50.026Z,99713.16
2022-12-06T05:23:55.476Z,99713.16
2022-12-06T05:28:58.228Z,99711.59
2022-12-06T05:33:59.969Z,99708.19
2022-12-06T05:39:01.628Z,99710.38
2022-12-06T05:44:03.333Z,99709.53
2022-12-06T05:49:05.015Z,99713.09
2022-12-06T05:54:06.806Z,99707.66
2022-12-06T05:59:08.507Z,99709.22
2022-12-06T06:04:10.317Z,99703.41
2022-12-06T06:09:11.992Z,99708.50
2022-12-06T06:14:14.955Z,99696.94
2022-12-06T06:19:16.646Z,99706.22
2022-12-06T06:24:18.335Z,99703.03
2022-12-06T06:29:20.039Z,99702.38
2022-12-06T06:34:21.767Z,99708.22
2022-12-06T06:39:23.442Z,99703.84
2022-12-06T06:44:25.197Z,99702.09
2022-12-06T06:49:26.877Z,99703.16
2022-12-06T06:54:28.592Z,99715.81
2022-12-06T06:59:30.430Z,99718.59
2022-12-06T07:04:32.072Z,99718.00
2022-12-06T07:09:34.683Z,99707.72
2022-12-06T07:14:36.452Z,99713.41
2022-12-06T07:19:38.200Z,99712.66
2022-12-06T07:24:42.817Z,99716.50
2022-12-06T07:29:44.595Z,99717.47
2022-12-06T07:34:46.261Z,99721.00
2022-12-06T07:39:47.930Z,99714.44
2022-12-06T07:45:02.827Z,99719.88
2022-12-06T07:50:06.489Z,99721.06
2022-12-06T07:55:10.095Z,99715.38
2022-12-06T08:00:15.216Z,99716.19
2022-12-06T08:05:17.016Z,99713.03
2022-12-06T08:10:18.864Z,99716.44
2022-12-06T08:15:20.540Z,99718.69
2022-12-06T08:20:23.538Z,99720.59
2022-12-06T08:25:25.371Z,99712.88
2022-12-06T08:30:27.277Z,99710.47
2022-12-06T08:35:28.962Z,99707.03
2022-12-06T08:40:30.632Z,99713.19
2022-12-06T08:45:33.593Z,99715.97
2022-12-06T08:50:35.298Z,99711.00
2022-12-06T08:55:36.990Z,99716.03
2022-12-06T09:00:38.706Z,99714.16
2022-12-06T09:05:40.363Z,99710.69
2022-12-06T09:10:43.572Z,99713.53
2022-12-06T09:15:45.279Z,99707.81
2022-12-06T09:20:46.996Z,99712.06
2022-12-06T09:25:48.763Z,99701.06
2022-12-06T09:30:50.459Z,99700.25
2022-12-06T09:35:53.416Z,99699.81
2022-12-06T09:41:04.113Z,99699.31
2022-12-06T09:46:24.769Z,99693.59
2022-12-06T09:51:49.797Z,99678.50
2022-12-06T09:57:01.060Z,99672.19
2022-12-06T10:02:17.715Z,99673.16
2022-12-06T10:07:33.259Z,99668.94
2022-12-06T10:13:02.584Z,99668.38
2022-12-06T10:18:22.324Z,99661.84
2022-12-06T10:23:41.522Z,99657.72
2022-12-06T10:28:44.511Z,99655.78
2022-12-06T10:33:49.151Z,99652.53
2022-12-06T10:39:00.022Z,99646.25
2022-12-06T10:44:13.534Z,99649.53
2022-12-06T10:49:36.729Z,99642.28
2022-12-06T10:54:50.802Z,99643.72
2022-12-06T11:00:19.361Z,99646.22
2022-12-06T11:05:32.319Z,99639.16
2022-12-06T11:10:35.452Z,99639.31
2022-12-06T11:15:42.436Z,99640.53
2022-12-06T11:20:56.870Z,99629.47
2022-12-06T11:26:23.045Z,99622.75
2022-12-06T11:31:46.624Z,99627.22
2022-12-06T11:36:56.614Z,99632.84
2022-12-06T11:42:04.344Z,99629.06
2022-12-06T11:47:07.411Z,99623.06
2022-12-06T11:52:14.128Z,99625.13
2022-12-06T11:57:26.309Z,99618.09
2022-12-06T12:02:31.944Z,99618.41
2022-12-06T12:07:35.549Z,99603.50
2022-12-06T12:13:05.634Z,99608.56
2022-12-06T12:18:23.599Z,99594.84
2022-12-06T12:23:30.675Z,99598.78
2022-12-06T12:28:34.676Z,99588.38
2022-12-06T12:33:36.747Z,99593.28
2022-12-06T12:38:50.363Z,99582.34
2022-12-06T12:44:37.195Z,99585.34
2022-12-06T12:49:29.810Z,99584.88
2022-12-06T12:54:34.780Z,99581.25
2022-12-06T12:59:40.285Z,99586.00
2022-12-06T13:04:45.461Z,99582.75
2022-12-06T13:10:02.934Z,99583.72
2022-12-06T13:15:34.044Z,99579.56
2022-12-06T13:20:37.330Z,99573.94
2022-12-06T13:25:39.750Z,99568.63
2022-12-06T13:30:42.692Z,99571.81
2022-12-06T13:35:54.896Z,99565.94
2022-12-06T13:40:58.588Z,99564.53
2022-12-06T13:46:09.549Z,99559.19
2022-12-06T13:51:32.851Z,99560.09
2022-12-06T13:56:34.503Z,99556.88
2022-12-06T14:01:52.549Z,99563.16
2022-12-06T14:07:05.320Z,99575.31
2022-12-06T14:12:09.751Z,99567.75
2022-12-06T14:17:26.947Z,99571.81
2022-12-06T14:22:37.580Z,99571.94
2022-12-06T14:27:45.596Z,99578.63
2022-12-06T14:32:56.609Z,99570.69
2022-12-06T14:38:02.083Z,99567.88
2022-12-06T14:43:16.032Z,99573.81
2022-12-06T14:48:18.927Z,99577.69
2022-12-06T14:53:37.604Z,99572.78
2022-12-06T14:58:45.735Z,99571.19
2022-12-06T15:04:01.922Z,99573.84
2022-12-06T15:09:12.967Z,99578.97
2022-12-06T15:14:23.022Z,99579.16
2022-12-06T15:19:24.854Z,99584.16
2022-12-06T15:24:28.185Z,99578.94
2022-12-06T15:29:29.855Z,99581.19
2022-12-06T15:34:35.234Z,99581.78
2022-12-06T15:39:37.000Z,99576.28
2022-12-06T15:44:38.736Z,99579.06
2022-12-06T15:49:41.025Z,99565.84
2022-12-06T15:54:42.740Z,99568.66
2022-12-06T15:59:44.424Z,99574.31
2022-12-06T16:04:48.541Z,99569.34
2022-12-06T16:09:50.266Z,99560.81
2022-12-06T16:14:51.922Z,99563.97
2022-12-06T16:20:12.095Z,99564.41
2022-12-06T16:25:13.824Z,99567.72
2022-12-06T16:30:15.914Z,99561.66
2022-12-06T16:35:17.569Z,99564.31
2022-12-06T16:40:21.707Z,99565.06
2022-12-06T16:45:23.374Z,99565.19
2022-12-06T16:50:26.742Z,99566.88
2022-12-06T16:55:28.417Z,99568.69
2022-12-06T17:00:30.576Z,99564.41
2022-12-06T17:05:32.520Z,99562.53
2022-12-06T17:10:34.212Z,99562.72
2022-12-06T17:15:35.882Z,99555.00
2022-12-06T17:20:37.551Z,99560.00
2022-12-06T17:25:39.220Z,99563.03
2022-12-06T17:30:40.949Z,99563.66
2022-12-06T17:35:42.617Z,99565.56
2022-12-06T17:40:44.372Z,99567.16
2022-12-06T17:45:46.104Z,99570.16
2022-12-06T17:50:47.796Z,99570.44
2022-12-06T17:55:49.508Z,99567.38
2022-12-06T18:00:51.237Z,99570.06
2022-12-06T18:05:52.957Z,99561.41
2022-12-06T18:11:00.159Z,99571.69
2022-12-06T18:16:01.952Z,99573.50
2022-12-06T18:21:10.738Z,99579.25
2022-12-06T18:26:14.214Z,99571.53
2022-12-06T18:31:16.187Z,99580.28
2022-12-06T18:36:19.612Z,99574.34
2022-12-06T18:41:22.626Z,99574.25
2022-12-06T18:46:25.410Z,99580.97
2022-12-06T18:51:30.235Z,99582.19
2022-12-06T18:56:33.720Z,99577.75
2022-12-06T19:01:37.609Z,99580.00
2022-12-06T19:06:39.444Z,99578.31
2022-12-06T19:11:43.815Z,99577.47
2022-12-06T19:16:48.508Z,99580.72
2022-12-06T19:21:52.389Z,99585.31
2022-12-06T19:26:58.078Z,99586.03
2022-12-06T19:31:59.773Z,99575.94
2022-12-06T19:37:01.546Z,99592.56
2022-12-06T19:42:21.754Z,99590.16
2022-12-06T19:47:23.474Z,99599.69
2022-12-06T19:52:29.403Z,99585.09
2022-12-06T19:57:32.678Z,99594.50
2022-12-06T20:02:34.895Z,99588.34
2022-12-06T20:07:37.015Z,99593.78
2022-12-06T20:12:38.752Z,99595.00
2022-12-06T20:17:40.927Z,99589.31
2022-12-06T20:22:42.904Z,99584.06
2022-12-06T20:27:53.620Z,99584.16
2022-12-06T20:32:55.459Z,99582.59
2022-12-06T20:37:57.446Z,99576.09
2022-12-06T20:42:59.157Z,99569.94
2022-12-06T20:48:00.868Z,99562.84
2022-12-06T20:53:02.697Z,99577.06
2022-12-06T20:58:04.357Z,99564.13
2022-12-06T21:03:06.121Z,99573.78
2022-12-06T21:08:09.573Z,99564.34
2022-12-06T21:13:11.298Z,99572.78
2022-12-06T21:18:17.366Z,99565.31
2022-12-06T21:23:20.714Z,99572.78
2022-12-06T21:28:23.313Z,99577.97
2022-12-06T21:33:26.110Z,99575.94
2022-12-06T21:38:30.159Z,99575.44
2022-12-06T21:43:31.830Z,99585.91
2022-12-06T21:48:33.958Z,99576.84
2022-12-06T21:53:36.791Z,99581.19
2022-12-06T21:58:38.533Z,99566.50
2022-12-06T22:03:40.612Z,99573.34
2022-12-06T22:08:44.395Z,99582.16
2022-12-06T22:13:47.213Z,99575.31
2022-12-06T22:18:48.963Z,99566.00
2022-12-06T22:23:51.540Z,99558.03
2022-12-06T22:28:53.206Z,99557.78
2022-12-06T22:33:56.919Z,99569.94
2022-12-06T22:39:01.353Z,99557.28
2022-12-06T22:44:05.306Z,99566.53
2022-12-06T22:49:06.987Z,99560.78
2022-12-06T22:54:12.816Z,99561.00
2022-12-06T22:59:16.625Z,99561.00
2022-12-06T23:04:18.319Z,99558.91
2022-12-06T23:09:20.088Z,99555.81
2022-12-06T23:14:21.808Z,99553.59
2022-12-06T23:19:23.719Z,99559.97
2022-12-06T23:24:25.414Z,99561.25
2022-12-06T23:29:27.107Z,99559.00
2022-12-06T23:34:28.817Z,99572.09
2022-12-06T23:39:30.489Z,99564.88
2022-12-06T23:44:32.242Z,99560.81
2022-12-06T23:49:33.975Z,99564.94
2022-12-06T23:54:35.708Z,99554.84
2022-12-06T23:59:37.402Z,99553.03
